Aérodrome :
LOGIN :

S'inscrire | Disclaimer

   EN    FR    IT 

 










Légende :    VFR   VFR Marginal   IFR   IFR Intensif   IFR Très Intensif
Visi : 
Plafond : 
>= 8 km
>= 3000ft
5 à 8 km
1000 à 3000 ft
1500m à 5 km
500 à 1000 ft
800 à 1500m
200 à 500 ft
< 800m
< 200 ft
Symboles :   Orages  Brouillard  Fortes neiges  Fortes précipitations  Vent > 20 kt
SIGMETs :   Divers  Orages  Givrage  Turbulence  Onde Orograph.  Cendres Volcan.






- Altitude de l'aérodrome : 33 ft
- Code IATA : PLQ


EYPA - Palanga

DERNIER METAR :
  • 270520Z 26010G25KT 210V310 9999 -SHRA BKN008 BKN049CB 02/01 Q0989 R19/2///95

METARs EXPIRÉS :
  • 270450Z 27010G21KT 220V310 9999 BKN010 BKN052 03/01 Q0989 R19/2///95
  • 270420Z 26010KT 210V320 9999 -RA OVC010 03/02 Q0989 R19/2///95
  • 270350Z 26008KT 210V340 9999 -RA OVC009 03/02 Q0989 R19/2///95
  • 270320Z 26008KT 220V320 6000 -RA OVC007 02/01 Q0988
  • 270250Z AUTO 25009G19KT 210V320 9999 -RA OVC007/// 03/02 Q0988

TAF TAF EYPA
Valide du 27 à 06h jusqu'au 28 à 06h UTC


270510Z 2706/2806 27014G28KT 7000 BKN010 OVC020
TEMPO 2706/2709 1500 RASN BR OVC005
TEMPO 2709/2715 1500 SHRASN BKN005 BKN015CB
TEMPO 2715/2803 3000 SHRASN BKN005 BKN015CB



MET'MAP, la Météo Aéronautique d'un coup d'oeil ! - Copyright ORBIFLY Décembre 2007 - Disclaimer

ORBIFLY MET'MAP TEAM :

Programmation & Développement : Alexandra Zaïnal
Sur une idée originale de : Baudouin d'Aumeries
Assistance à la programmation : Marc-Olivier Méhu
Soutien technique & logistique : Manuel Goepfert

Contact : metmap@orbifly.com




SOURCES & CREDITS :

   NOAA